Time;durP1;ratioP1;P1;durP2;ratioP2;P2;SDS_P1;SDS_P2;PMS_P1;PMS_P2;Temp;Humidity;BMP_temperature;BMP_pressure;BME280_temperature;BME280_humidity;BME280_pressure;Samples;Min_cycle;Max_cycle;Signal;HPM_P1;HPM_P2
2022/01/28 05:03:13;;;;;;;29.93;15.63;;;3.00;99.90;;;;;;4914174;29;20856;-75
2022/01/28 05:06:20;;;;;;;34.83;15.97;;;3.00;99.90;;;;;;4915975;29;20472;-75
2022/01/28 05:09:30;;;;;;;42.57;16.13;;;3.10;99.90;;;;;;4915727;29;20450;-75
2022/01/28 05:12:39;;;;;;;30.13;14.33;;;3.00;99.90;;;;;;4915958;29;20475;-77
2022/01/28 05:15:27;;;;;;;33.47;15.90;;;3.00;99.90;;;;;;4916124;29;20820;-75
2022/01/28 05:23:53;;;;;;;31.40;17.03;;;2.90;99.90;;;;;;4915770;29;20450;-77
2022/01/28 05:26:32;;;;;;;29.47;15.87;;;2.90;99.90;;;;;;4915469;29;20450;-76
2022/01/28 05:28:59;;;;;;;30.00;15.50;;;2.90;99.90;;;;;;4915435;29;20454;-77
2022/01/28 05:31:26;;;;;;;28.80;14.70;;;3.00;99.90;;;;;;4915685;29;20577;-77
2022/01/28 05:33:53;;;;;;;29.47;15.57;;;3.00;99.90;;;;;;4915858;29;20481;-77
2022/01/28 05:36:22;;;;;;;27.27;15.30;;;3.00;99.90;;;;;;4915693;29;20459;-76
2022/01/28 05:38:49;;;;;;;35.63;16.00;;;3.00;99.90;;;;;;4915276;29;20585;-68
2022/01/28 05:41:17;;;;;;;33.00;15.53;;;3.00;99.90;;;;;;4915324;29;21024;-68
2022/01/28 05:43:44;;;;;;;27.63;14.47;;;3.00;99.90;;;;;;4915291;29;20454;-68
2022/01/28 05:46:11;;;;;;;34.03;16.50;;;2.90;99.90;;;;;;4915684;29;20553;-68
2022/01/28 05:48:38;;;;;;;33.30;15.20;;;2.90;99.90;;;;;;4915284;29;20486;-76
2022/01/28 05:51:05;;;;;;;40.73;16.70;;;2.90;99.90;;;;;;4917073;29;20864;-77
2022/01/28 05:53:33;;;;;;;30.60;15.10;;;2.90;99.90;;;;;;4919569;29;20462;-76
2022/01/28 05:56:03;;;;;;;30.70;16.40;;;2.90;99.90;;;;;;4919992;29;20516;-77
2022/01/28 05:58:30;;;;;;;32.10;15.80;;;3.00;99.90;;;;;;4918891;29;20498;-75
2022/01/28 06:00:57;;;;;;;35.77;16.87;;;3.00;99.90;;;;;;4918921;29;20486;-75
2022/01/28 06:03:24;;;;;;;29.40;15.90;;;3.00;99.90;;;;;;4918785;29;20970;-75
2022/01/28 06:05:51;;;;;;;31.73;17.37;;;3.00;99.90;;;;;;4918906;29;20459;-75
2022/01/28 06:08:18;;;;;;;33.40;16.33;;;3.00;99.90;;;;;;4919003;29;20450;-75
2022/01/28 06:10:46;;;;;;;29.87;16.67;;;3.10;99.90;;;;;;4918488;29;20602;-75
2022/01/28 06:13:13;;;;;;;38.43;17.13;;;3.10;99.90;;;;;;4919120;29;20505;-75
2022/01/28 06:15:44;;;;;;;30.43;17.23;;;3.20;99.90;;;;;;4918970;29;20545;-75
2022/01/28 06:18:12;;;;;;;30.57;16.50;;;3.20;99.90;;;;;;4918859;29;21032;-74
2022/01/28 06:20:43;;;;;;;29.03;15.63;;;3.30;99.90;;;;;;4918626;29;20557;-75
2022/01/28 06:23:12;;;;;;;34.00;17.40;;;3.20;99.90;;;;;;4918364;29;20557;-75
2022/01/28 06:25:39;;;;;;;29.83;16.90;;;3.10;99.90;;;;;;4918612;29;20458;-75
2022/01/28 06:28:07;;;;;;;38.10;18.53;;;3.10;99.90;;;;;;4918683;29;20458;-75
2022/01/28 06:30:34;;;;;;;35.40;16.47;;;3.10;99.90;;;;;;4918294;29;20475;-75
2022/01/28 06:33:01;;;;;;;36.17;18.27;;;3.10;99.90;;;;;;4918520;29;20469;-76
2022/01/28 06:35:28;;;;;;;33.50;18.40;;;3.10;99.90;;;;;;4918600;29;20541;-76
2022/01/28 06:37:55;;;;;;;38.30;17.73;;;3.00;99.90;;;;;;4918248;29;20505;-76
2022/01/28 06:40:22;;;;;;;38.97;18.07;;;3.00;99.90;;;;;;4918371;29;20496;-75
2022/01/28 06:42:51;;;;;;;40.90;18.07;;;3.00;99.90;;;;;;4918531;29;20494;-76
2022/01/28 06:45:19;;;;;;;34.77;17.70;;;3.00;99.90;;;;;;4918284;29;20490;-75
2022/01/28 06:47:46;;;;;;;33.67;18.30;;;3.00;99.90;;;;;;4918313;29;20497;-75
2022/01/28 06:50:13;;;;;;;35.13;16.93;;;3.00;99.90;;;;;;4917637;29;20464;-76
2022/01/28 06:52:42;;;;;;;37.03;17.20;;;2.90;99.90;;;;;;4917939;29;20454;-77
2022/01/28 06:55:10;;;;;;;39.73;18.43;;;2.90;99.90;;;;;;4917859;29;20458;-76
2022/01/28 06:57:39;;;;;;;37.43;18.00;;;2.90;99.90;;;;;;4918118;29;20470;-76
2022/01/28 07:00:09;;;;;;;39.17;17.97;;;2.90;99.90;;;;;;4917974;29;20454;-75
2022/01/28 07:02:38;;;;;;;35.87;17.90;;;2.90;99.90;;;;;;4917497;29;20518;-76
2022/01/28 07:05:06;;;;;;;30.83;18.57;;;2.80;99.90;;;;;;4917784;29;20451;-77
2022/01/28 07:07:34;;;;;;;37.73;18.37;;;2.80;99.90;;;;;;4917870;29;20490;-75
2022/01/28 07:10:01;;;;;;;37.03;18.63;;;2.80;99.90;;;;;;4917713;29;20491;-75
2022/01/28 07:12:27;;;;;;;44.67;19.50;;;2.90;99.90;;;;;;4917895;29;20477;-75
2022/01/28 07:14:54;;;;;;;34.93;19.37;;;2.90;99.90;;;;;;4917834;29;20497;-75
2022/01/28 07:17:21;;;;;;;41.10;19.70;;;3.00;99.90;;;;;;4917713;29;20891;-75
2022/01/28 07:19:50;;;;;;;47.17;22.07;;;2.90;99.90;;;;;;4917277;29;20498;-75
2022/01/28 07:22:16;;;;;;;39.60;18.57;;;2.90;99.90;;;;;;4917677;29;20502;-74
2022/01/28 07:24:43;;;;;;;36.13;18.73;;;2.90;99.90;;;;;;4917699;29;20537;-73
2022/01/28 07:27:10;;;;;;;42.83;20.50;;;2.90;99.90;;;;;;4917556;29;20553;-73
2022/01/28 07:29:37;;;;;;;35.73;18.93;;;3.00;99.90;;;;;;4917348;29;20480;-73
2022/01/28 07:32:05;;;;;;;38.50;18.47;;;3.00;99.90;;;;;;4917223;29;20479;-76
2022/01/28 07:34:32;;;;;;;41.90;19.20;;;3.00;99.90;;;;;;4917451;29;20967;-75
2022/01/28 07:37:00;;;;;;;35.10;17.43;;;3.00;99.90;;;;;;4917373;29;21018;-75
2022/01/28 07:39:28;;;;;;;40.37;19.80;;;3.10;99.90;;;;;;4917199;29;20585;-75
2022/01/28 07:41:55;;;;;;;38.60;19.13;;;3.10;99.90;;;;;;4917219;29;20514;-75
2022/01/28 07:44:22;;;;;;;39.17;18.50;;;3.10;99.90;;;;;;4917080;29;20501;-74
2022/01/28 07:46:49;;;;;;;37.57;18.30;;;3.10;99.90;;;;;;4917157;29;21006;-75
2022/01/28 07:49:16;;;;;;;42.80;19.80;;;3.10;99.90;;;;;;4917045;29;20550;-73
2022/01/28 07:51:43;;;;;;;37.63;17.80;;;3.10;99.90;;;;;;4915265;29;20485;-75
2022/01/28 07:54:11;;;;;;;34.97;17.70;;;3.10;99.90;;;;;;4916958;29;20537;-73
2022/01/28 07:56:38;;;;;;;34.53;17.97;;;3.10;99.90;;;;;;4916322;29;20490;-74
2022/01/28 07:59:05;;;;;;;33.40;17.17;;;3.10;99.90;;;;;;4915986;29;20581;-74
2022/01/28 08:01:32;;;;;;;30.80;16.03;;;3.10;99.90;;;;;;4916676;29;20490;-75
2022/01/28 08:03:59;;;;;;;37.50;18.00;;;3.10;99.90;;;;;;4916806;29;21031;-74
2022/01/28 08:06:26;;;;;;;47.00;18.80;;;3.10;99.90;;;;;;4916912;29;20880;-74
2022/01/28 08:08:53;;;;;;;39.27;16.17;;;3.10;99.90;;;;;;4916538;29;20533;-74
2022/01/28 08:11:21;;;;;;;38.70;17.93;;;3.20;99.90;;;;;;4916498;29;21014;-74
2022/01/28 08:13:48;;;;;;;38.13;18.30;;;3.20;99.90;;;;;;4915191;29;20467;-74
2022/01/28 08:16:15;;;;;;;32.20;15.43;;;3.20;99.90;;;;;;4916658;29;20461;-73
2022/01/28 08:18:42;;;;;;;39.93;18.60;;;3.30;99.90;;;;;;4916286;29;20537;-73
2022/01/28 08:21:09;;;;;;;29.10;16.10;;;3.30;99.90;;;;;;4916049;29;20486;-73
2022/01/28 08:23:36;;;;;;;30.73;15.73;;;3.20;99.90;;;;;;4916327;29;20454;-73
2022/01/28 08:26:03;;;;;;;35.33;17.03;;;3.20;99.90;;;;;;4916381;29;20451;-74
2022/01/28 08:28:31;;;;;;;26.47;15.33;;;3.20;99.90;;;;;;4917347;29;20458;-73
2022/01/28 08:30:59;;;;;;;37.47;17.47;;;3.20;99.90;;;;;;4922912;29;20569;-74
2022/01/28 08:33:26;;;;;;;30.90;15.83;;;3.20;99.90;;;;;;4923090;29;20458;-73
2022/01/28 08:35:54;;;;;;;36.53;16.33;;;3.20;99.90;;;;;;4929979;29;20453;-74
2022/01/28 08:38:27;;;;;;;31.03;16.10;;;3.30;99.90;;;;;;4925219;29;20472;-74
2022/01/28 08:40:56;;;;;;;31.47;15.40;;;3.30;99.90;;;;;;4915903;29;20470;-74
2022/01/28 08:43:23;;;;;;;31.27;16.80;;;3.30;99.90;;;;;;4913254;29;20449;-74
2022/01/28 08:45:52;;;;;;;31.13;16.00;;;3.30;99.90;;;;;;4916063;29;20479;-74
2022/01/28 08:48:19;;;;;;;31.57;16.20;;;3.40;99.90;;;;;;4915787;29;20918;-74
2022/01/28 08:50:46;;;;;;;32.53;16.23;;;3.50;99.90;;;;;;4914853;29;20922;-74
2022/01/28 08:53:13;;;;;;;30.43;15.90;;;3.50;99.90;;;;;;4915909;29;20457;-74
2022/01/28 08:55:40;;;;;;;37.77;16.77;;;3.50;99.90;;;;;;4916123;29;20514;-74
2022/01/28 08:58:09;;;;;;;38.10;17.40;;;3.60;99.90;;;;;;4915401;29;20493;-74
2022/01/28 09:00:36;;;;;;;29.30;14.63;;;3.60;99.90;;;;;;4915633;29;20518;-76
2022/01/28 09:03:05;;;;;;;32.50;15.60;;;3.70;99.90;;;;;;4915857;29;20554;-74
2022/01/28 09:05:33;;;;;;;29.33;15.17;;;3.70;99.90;;;;;;4915624;29;20490;-74
2022/01/28 09:08:06;;;;;;;31.97;16.00;;;3.80;99.90;;;;;;4914242;29;20462;-74
2022/01/28 09:10:33;;;;;;;28.83;14.23;;;3.80;99.90;;;;;;4915204;29;20501;-73
2022/01/28 09:13:22;;;;;;;27.30;13.90;;;3.80;99.90;;;;;;4915476;29;20446;-74
2022/01/28 09:15:50;;;;;;;29.97;14.00;;;3.80;99.90;;;;;;4915605;29;20454;-74
2022/01/28 09:18:20;;;;;;;26.63;13.60;;;3.80;99.90;;;;;;4915287;29;20455;-74
2022/01/28 09:20:47;;;;;;;26.13;13.63;;;3.80;99.90;;;;;;4915509;29;20502;-73
2022/01/28 09:23:14;;;;;;;27.23;13.80;;;3.80;99.90;;;;;;4915706;29;20455;-74
2022/01/28 09:25:42;;;;;;;25.00;13.27;;;3.90;99.90;;;;;;4915520;29;20542;-74
2022/01/28 09:28:09;;;;;;;27.83;14.40;;;3.90;99.90;;;;;;4915406;29;20850;-75
2022/01/28 09:30:36;;;;;;;26.00;12.27;;;3.90;99.90;;;;;;4915179;29;20467;-74
2022/01/28 09:33:05;;;;;;;25.87;14.00;;;3.90;99.90;;;;;;4915319;29;20538;-74
2022/01/28 09:35:34;;;;;;;30.13;12.83;;;3.90;99.90;;;;;;4915550;29;20483;-74
2022/01/28 09:38:02;;;;;;;23.27;11.87;;;3.90;99.90;;;;;;4915581;29;20962;-74
2022/01/28 09:40:29;;;;;;;27.00;12.67;;;4.00;99.90;;;;;;4919798;29;20530;-74
2022/01/28 09:42:56;;;;;;;23.73;12.80;;;4.00;99.90;;;;;;4921517;29;20463;-74
2022/01/28 09:45:24;;;;;;;23.17;12.40;;;4.00;99.90;;;;;;4922180;29;20948;-74
2022/01/28 09:47:53;;;;;;;26.33;13.10;;;4.10;99.90;;;;;;4915377;29;21030;-73
2022/01/28 09:50:22;;;;;;;21.33;11.70;;;4.20;99.90;;;;;;4915301;29;20462;-74
2022/01/28 09:52:50;;;;;;;25.33;12.87;;;4.20;99.90;;;;;;4924268;29;20458;-74
2022/01/28 09:55:17;;;;;;;25.50;11.87;;;4.40;99.90;;;;;;4934837;29;20454;-76
2022/01/28 09:57:45;;;;;;;19.27;11.87;;;4.50;99.90;;;;;;4931389;29;20457;-74
2022/01/28 10:00:14;;;;;;;24.00;11.20;;;4.50;99.90;;;;;;4934233;29;20569;-76
2022/01/28 10:02:52;;;;;;;23.13;10.80;;;4.50;99.90;;;;;;4934689;29;20484;-75
2022/01/28 10:05:25;;;;;;;18.33;11.43;;;4.60;99.90;;;;;;4934619;29;20545;-75
2022/01/28 10:08:09;;;;;;;21.63;11.23;;;4.70;99.90;;;;;;4935231;29;20505;-75
2022/01/28 10:10:49;;;;;;;18.93;12.30;;;4.80;99.90;;;;;;4921797;29;21066;-75
2022/01/28 10:13:24;;;;;;;20.10;9.90;;;4.80;99.90;;;;;;4915324;29;20454;-76
2022/01/28 10:16:04;;;;;;;18.87;9.30;;;4.80;99.90;;;;;;4915291;29;20464;-76
2022/01/28 10:18:40;;;;;;;22.83;10.10;;;4.80;99.90;;;;;;4915277;29;20460;-75
2022/01/28 10:21:20;;;;;;;19.53;10.40;;;4.70;99.90;;;;;;4915175;29;20485;-77
2022/01/28 10:23:58;;;;;;;19.57;12.03;;;4.70;99.90;;;;;;4915064;29;20553;-75
2022/01/28 10:26:30;;;;;;;20.70;10.77;;;4.80;99.90;;;;;;4916422;29;20533;-77
2022/01/28 10:28:58;;;;;;;17.90;10.17;;;4.90;99.90;;;;;;4920612;29;20538;-76
2022/01/28 10:31:35;;;;;;;23.80;10.50;;;4.80;99.90;;;;;;4923884;29;20694;-77
2022/01/28 10:34:11;;;;;;;14.53;8.57;;;4.80;99.90;;;;;;4896441;29;20984;-76
2022/01/28 10:36:38;;;;;;;21.80;10.40;;;4.80;99.90;;;;;;4909464;29;20464;-74
2022/01/28 10:39:15;;;;;;;19.10;9.60;;;4.90;99.90;;;;;;4917281;29;20535;-74
2022/01/28 10:41:58;;;;;;;18.23;10.80;;;4.80;99.90;;;;;;4915598;29;20506;-72
2022/01/28 10:44:26;;;;;;;15.57;8.87;;;4.90;99.90;;;;;;4917983;29;20498;-73
2022/01/28 10:46:57;;;;;;;20.53;9.03;;;4.90;99.90;;;;;;4918272;29;20529;-73
2022/01/28 10:49:33;;;;;;;20.27;10.87;;;5.00;99.90;;;;;;4918374;29;20443;-72
2022/01/28 10:52:06;;;;;;;14.47;9.23;;;5.10;99.90;;;;;;4923308;29;20541;-72
2022/01/28 10:54:36;;;;;;;17.70;9.77;;;5.20;99.90;;;;;;4918009;29;20486;-73
2022/01/28 10:57:04;;;;;;;18.70;8.20;;;5.20;99.90;;;;;;4919158;29;20463;-73
2022/01/28 10:59:33;;;;;;;15.43;8.60;;;5.20;99.90;;;;;;4926591;29;20584;-73
2022/01/28 11:02:01;;;;;;;17.43;9.20;;;5.30;99.90;;;;;;4920174;29;20478;-73
2022/01/28 11:04:28;;;;;;;17.63;7.93;;;5.20;99.90;;;;;;4917872;29;20454;-74
2022/01/28 11:06:58;;;;;;;20.60;9.07;;;5.30;99.90;;;;;;4918230;29;20880;-73
2022/01/28 11:09:26;;;;;;;18.00;8.70;;;5.30;99.90;;;;;;4917228;29;20451;-72
2022/01/28 11:11:55;;;;;;;14.57;9.80;;;5.30;99.90;;;;;;4917987;29;20569;-73
2022/01/28 11:14:23;;;;;;;16.67;8.13;;;5.30;99.90;;;;;;4918043;29;20459;-73
2022/01/28 11:16:50;;;;;;;17.33;8.17;;;5.30;99.90;;;;;;4915362;29;20458;-74
2022/01/28 11:19:21;;;;;;;12.30;7.70;;;5.40;99.90;;;;;;4916675;29;20498;-74
2022/01/28 11:22:00;;;;;;;14.20;6.33;;;5.40;99.90;;;;;;4917714;29;20562;-73
2022/01/28 11:24:42;;;;;;;15.33;5.87;;;5.40;99.90;;;;;;4916465;29;20469;-73
2022/01/28 11:27:18;;;;;;;10.43;6.43;;;5.40;99.90;;;;;;4917298;29;21023;-74
2022/01/28 11:29:45;;;;;;;13.20;6.93;;;5.30;99.90;;;;;;4917249;29;20446;-73
2022/01/28 11:32:15;;;;;;;13.30;6.17;;;5.40;99.90;;;;;;4917549;29;20478;-73
2022/01/28 11:34:59;;;;;;;12.10;6.17;;;5.30;99.90;;;;;;4917480;29;20516;-73
2022/01/28 11:37:27;;;;;;;11.07;7.20;;;5.40;99.90;;;;;;4917438;29;21023;-73
2022/01/28 11:39:55;;;;;;;14.40;7.00;;;5.40;99.90;;;;;;4916764;29;20585;-74
2022/01/28 11:42:29;;;;;;;20.30;7.20;;;5.40;99.90;;;;;;4916697;29;20853;-74
2022/01/28 11:44:59;;;;;;;15.03;7.10;;;5.40;99.90;;;;;;4910873;29;20939;-74
2022/01/28 11:47:27;;;;;;;11.60;7.00;;;5.40;99.90;;;;;;4916280;29;20543;-74
2022/01/28 11:50:05;;;;;;;12.20;6.30;;;5.40;99.90;;;;;;4915957;29;20455;-74
2022/01/28 11:52:33;;;;;;;15.40;6.90;;;5.40;99.90;;;;;;4916867;29;20506;-74
2022/01/28 11:55:31;;;;;;;12.53;7.40;;;5.40;99.90;;;;;;4916956;29;20576;-74
2022/01/28 11:58:00;;;;;;;14.43;6.97;;;5.50;99.90;;;;;;4916926;29;20458;-74
2022/01/28 12:00:30;;;;;;;13.57;6.03;;;5.70;99.90;;;;;;4916485;29;20498;-74
2022/01/28 12:02:57;;;;;;;29.13;14.87;;;5.80;99.90;;;;;;4916536;29;20465;-74
2022/01/28 12:05:58;;;;;;;35.00;19.50;;;5.80;99.90;;;;;;4917073;29;20455;-74
2022/01/28 12:08:29;;;;;;;20.33;14.07;;;5.90;99.90;;;;;;4916091;29;20454;-74
2022/01/28 12:10:57;;;;;;;15.47;5.90;;;5.80;99.90;;;;;;4916091;29;20509;-74
2022/01/28 12:13:34;;;;;;;18.03;9.17;;;5.70;99.90;;;;;;4915990;29;20459;-75
2022/01/28 12:16:10;;;;;;;13.67;8.03;;;5.70;99.90;;;;;;4915619;29;20959;-74
2022/01/28 12:18:55;;;;;;;9.73;4.57;;;5.90;99.90;;;;;;4915637;29;20454;-74
2022/01/28 12:21:24;;;;;;;14.50;9.93;;;5.90;99.90;;;;;;4915371;29;20505;-74
2022/01/28 12:23:53;;;;;;;44.23;34.40;;;5.80;99.90;;;;;;4915419;29;20562;-74
2022/01/28 12:26:21;;;;;;;17.63;6.63;;;5.90;99.90;;;;;;4914965;29;20491;-74
2022/01/28 12:28:57;;;;;;;12.87;10.20;;;5.90;99.90;;;;;;4915304;29;20446;-75
2022/01/28 12:31:27;;;;;;;14.57;6.37;;;6.00;99.90;;;;;;4915751;29;20500;-74
2022/01/28 12:33:56;;;;;;;10.90;7.70;;;5.90;99.90;;;;;;4915861;29;20522;-74
2022/01/28 12:36:25;;;;;;;18.33;7.50;;;5.90;99.90;;;;;;4915715;29;20450;-74
2022/01/28 12:39:13;;;;;;;14.67;7.47;;;5.90;99.90;;;;;;4916275;29;20549;-75
2022/01/28 12:41:52;;;;;;;9.50;6.30;;;5.90;99.90;;;;;;4915219;29;21175;-74
2022/01/28 12:44:21;;;;;;;15.53;6.27;;;5.90;99.90;;;;;;4916569;29;20446;-75
2022/01/28 12:46:58;;;;;;;17.30;7.13;;;5.90;99.90;;;;;;4915949;29;20451;-74
2022/01/28 12:49:30;;;;;;;9.80;5.63;;;5.90;99.90;;;;;;4915686;29;20530;-74
2022/01/28 12:51:58;;;;;;;12.10;6.50;;;5.90;99.90;;;;;;4908815;29;20577;-75
2022/01/28 12:54:33;;;;;;;10.53;6.00;;;5.80;99.90;;;;;;4916222;29;20493;-74
2022/01/28 12:57:00;;;;;;;13.33;5.90;;;5.70;99.90;;;;;;4915935;29;20450;-74
2022/01/28 12:59:28;;;;;;;12.87;5.73;;;5.70;99.90;;;;;;4915576;29;20462;-75
2022/01/28 13:01:56;;;;;;;11.60;6.30;;;5.80;99.90;;;;;;4913654;29;20485;-74
2022/01/28 13:04:35;;;;;;;7.97;5.10;;;5.70;99.90;;;;;;4916390;29;20451;-75
2022/01/28 13:09:44;;;;;;;9.23;5.33;;;5.70;99.90;;;;;;4915071;29;20514;-74
2022/01/28 13:12:21;;;;;;;10.17;5.60;;;5.80;99.90;;;;;;4915976;29;20470;-77
2022/01/28 13:14:50;;;;;;;9.83;4.10;;;5.80;99.90;;;;;;4916029;29;20445;-75
2022/01/28 13:17:20;;;;;;;9.03;5.20;;;5.80;99.90;;;;;;4916370;29;20469;-77
2022/01/28 13:19:54;;;;;;;16.60;5.20;;;5.70;99.90;;;;;;4917265;29;20454;-78
2022/01/28 13:22:26;;;;;;;11.50;5.57;;;5.70;99.90;;;;;;4915142;29;20529;-76
2022/01/28 13:24:53;;;;;;;10.73;5.30;;;5.70;99.90;;;;;;4915499;29;20959;-69
2022/01/28 13:27:21;;;;;;;11.00;7.33;;;5.70;99.90;;;;;;4915482;29;20458;-69
2022/01/28 13:29:53;;;;;;;10.33;6.30;;;5.70;99.90;;;;;;4915274;29;20541;-69
2022/01/28 13:32:24;;;;;;;13.53;7.27;;;5.60;99.90;;;;;;4914965;29;20470;-69
2022/01/28 13:34:53;;;;;;;15.03;7.40;;;5.60;99.90;;;;;;4915642;29;20537;-69
2022/01/28 13:37:38;;;;;;;21.50;8.00;;;5.70;99.90;;;;;;4915741;29;20454;-69
2022/01/28 13:40:06;;;;;;;12.87;8.17;;;5.70;99.90;;;;;;4914504;29;20498;-69
2022/01/28 13:42:33;;;;;;;14.47;7.53;;;5.70;99.90;;;;;;4915073;29;20475;-70
2022/01/28 13:45:05;;;;;;;17.13;7.90;;;5.70;99.90;;;;;;4915413;29;20545;-77
2022/01/28 13:47:51;;;;;;;16.10;7.70;;;5.70;99.90;;;;;;4916362;29;20443;-77
2022/01/28 13:50:30;;;;;;;19.57;8.90;;;5.70;99.90;;;;;;4914553;29;20451;-77
2022/01/28 13:53:21;;;;;;;15.07;8.40;;;5.80;99.90;;;;;;4916045;29;20470;-76
2022/01/28 13:55:49;;;;;;;16.70;9.40;;;5.90;99.90;;;;;;4914609;29;20467;-76
2022/01/28 13:58:16;;;;;;;13.80;8.77;;;5.90;99.90;;;;;;4915443;29;20475;-76
2022/01/28 14:00:46;;;;;;;16.90;9.57;;;5.80;99.90;;;;;;4914096;29;20506;-76
2022/01/28 14:03:18;;;;;;;16.80;8.67;;;5.80;99.90;;;;;;4915183;29;20450;-75
2022/01/28 14:05:56;;;;;;;15.70;8.20;;;5.80;99.90;;;;;;4915212;29;20542;-76
2022/01/28 14:08:43;;;;;;;15.90;9.70;;;5.70;99.90;;;;;;4915143;29;20529;-76
2022/01/28 14:11:26;;;;;;;19.50;10.10;;;5.80;99.90;;;;;;4915128;29;20470;-75
2022/01/28 14:14:15;;;;;;;13.90;7.70;;;5.90;99.90;;;;;;4918740;29;20521;-76
2022/01/28 14:16:45;;;;;;;18.70;7.80;;;6.00;99.90;;;;;;4918812;29;20819;-76
2022/01/28 14:19:12;;;;;;;17.20;8.00;;;6.00;99.90;;;;;;4918053;29;20967;-76
2022/01/28 14:21:40;;;;;;;17.03;8.40;;;5.90;99.90;;;;;;4917207;29;20497;-76
2022/01/28 14:24:08;;;;;;;16.73;9.00;;;5.90;99.90;;;;;;4918379;29;20454;-76
2022/01/28 14:26:40;;;;;;;19.50;8.73;;;5.90;99.90;;;;;;4917628;29;20494;-76
2022/01/28 14:31:55;;;;;;;17.43;9.00;;;5.70;99.90;;;;;;4918164;29;20582;-76
2022/01/28 14:34:23;;;;;;;19.83;8.27;;;5.70;99.90;;;;;;4917943;29;20461;-76
2022/01/28 14:36:50;;;;;;;16.60;8.80;;;5.60;99.90;;;;;;4916509;29;20458;-76
2022/01/28 14:39:18;;;;;;;21.23;8.83;;;5.60;99.90;;;;;;4917444;29;20465;-75
2022/01/28 14:41:45;;;;;;;47.97;28.30;;;5.60;99.90;;;;;;4918456;29;20508;-75
2022/01/28 14:44:12;;;;;;;25.70;13.20;;;5.60;99.90;;;;;;4917786;29;20501;-75
2022/01/28 14:46:39;;;;;;;16.67;9.00;;;5.50;99.90;;;;;;4917648;29;20629;-75
2022/01/28 14:49:07;;;;;;;19.67;9.67;;;5.50;99.90;;;;;;4917946;29;20449;-75
2022/01/28 14:51:36;;;;;;;15.50;9.20;;;5.50;99.90;;;;;;4917951;29;20474;-75
2022/01/28 14:54:04;;;;;;;17.23;9.90;;;5.50;99.90;;;;;;4917395;29;20525;-75
2022/01/28 14:56:31;;;;;;;17.00;10.83;;;5.40;99.90;;;;;;4916794;29;20523;-75
2022/01/28 14:59:00;;;;;;;17.50;8.10;;;5.50;99.90;;;;;;4917074;29;20560;-75
2022/01/28 15:01:28;;;;;;;19.20;11.20;;;5.60;99.90;;;;;;4916398;29;20509;-75
2022/01/28 15:03:55;;;;;;;17.30;9.40;;;5.60;99.90;;;;;;4917576;29;20446;-76
2022/01/28 15:06:23;;;;;;;17.60;11.23;;;5.60;99.90;;;;;;4917266;29;20534;-75
2022/01/28 15:08:51;;;;;;;16.13;10.57;;;5.50;99.90;;;;;;4916826;29;20542;-75
2022/01/28 15:11:31;;;;;;;16.07;9.50;;;5.50;99.90;;;;;;4916625;29;20500;-75
2022/01/28 15:13:58;;;;;;;17.03;8.93;;;5.50;99.90;;;;;;4915271;29;20474;-75
2022/01/28 15:16:25;;;;;;;18.03;9.90;;;5.50;99.90;;;;;;4916498;29;20451;-75
2022/01/28 15:18:52;;;;;;;15.87;7.93;;;5.40;99.90;;;;;;4916041;29;20535;-75
2022/01/28 15:21:19;;;;;;;15.20;8.40;;;5.40;99.90;;;;;;4916229;29;20505;-75
2022/01/28 15:23:47;;;;;;;19.20;9.50;;;5.30;99.90;;;;;;4915937;29;20545;-75
2022/01/28 15:26:16;;;;;;;22.70;8.67;;;5.30;99.90;;;;;;4916183;29;20944;-75
2022/01/28 15:28:59;;;;;;;17.37;10.80;;;5.30;99.90;;;;;;4915872;29;20545;-75
2022/01/28 15:34:17;;;;;;;11.10;7.10;;;5.30;99.90;;;;;;4917527;29;21002;-75
2022/01/28 15:36:45;;;;;;;15.33;7.50;;;5.20;99.90;;;;;;4919921;29;20459;-75
2022/01/28 15:39:13;;;;;;;15.43;8.13;;;5.20;99.90;;;;;;4918079;29;20485;-76
2022/01/28 15:41:40;;;;;;;17.20;9.53;;;5.20;99.90;;;;;;4925315;29;20521;-76
2022/01/28 15:44:08;;;;;;;19.90;10.67;;;5.20;99.90;;;;;;4927388;29;20456;-76
2022/01/28 15:46:36;;;;;;;16.57;11.17;;;5.10;99.90;;;;;;4935513;29;20480;-74
2022/01/28 15:49:03;;;;;;;20.40;13.80;;;5.10;99.90;;;;;;4935250;29;20453;-75
2022/01/28 15:51:29;;;;;;;15.10;10.03;;;5.10;99.90;;;;;;4926112;29;20475;-75
2022/01/28 15:53:56;;;;;;;19.90;9.80;;;5.10;99.90;;;;;;4931025;29;20479;-76
2022/01/28 15:56:25;;;;;;;15.90;8.63;;;5.20;99.90;;;;;;4932524;29;20535;-75
2022/01/28 15:58:52;;;;;;;14.90;9.23;;;5.10;99.90;;;;;;4934202;29;20453;-75
2022/01/28 16:01:22;;;;;;;16.30;9.20;;;5.10;99.90;;;;;;4934792;29;20502;-75
2022/01/28 16:03:49;;;;;;;17.20;9.33;;;5.00;99.90;;;;;;4934945;29;20455;-75
2022/01/28 16:06:16;;;;;;;17.27;8.83;;;5.00;99.90;;;;;;4935211;29;20459;-75
2022/01/28 16:08:43;;;;;;;22.83;12.20;;;4.90;99.90;;;;;;4933447;29;20458;-75
2022/01/28 16:11:16;;;;;;;17.70;9.90;;;4.90;99.90;;;;;;4934727;29;20918;-75
2022/01/28 16:13:56;;;;;;;17.80;8.60;;;4.90;99.90;;;;;;4932501;29;20462;-75
2022/01/28 16:19:08;;;;;;;14.83;9.40;;;4.90;99.90;;;;;;4949038;29;20445;-74
2022/01/28 16:21:35;;;;;;;17.63;11.23;;;5.00;99.90;;;;;;4941479;29;20493;-74
2022/01/28 16:24:02;;;;;;;18.13;9.50;;;4.90;99.90;;;;;;4943027;29;20475;-74
2022/01/28 16:26:30;;;;;;;17.97;10.40;;;4.90;99.90;;;;;;4925436;29;20451;-74
2022/01/28 16:28:58;;;;;;;18.23;9.73;;;4.90;99.90;;;;;;4922974;29;20454;-75
2022/01/28 16:31:26;;;;;;;20.17;10.00;;;4.90;99.90;;;;;;4925732;29;20526;-75
2022/01/28 16:33:55;;;;;;;15.33;8.80;;;4.90;99.90;;;;;;4921379;29;20523;-75
2022/01/28 16:36:22;;;;;;;25.60;13.80;;;4.90;99.90;;;;;;4915182;29;20955;-74
2022/01/28 16:38:50;;;;;;;14.63;9.23;;;4.80;99.90;;;;;;4915666;29;20451;-74
2022/01/28 16:41:17;;;;;;;24.60;16.27;;;4.80;99.90;;;;;;4925332;29;20505;-74
2022/01/28 16:43:57;;;;;;;21.60;10.90;;;4.80;99.90;;;;;;4915355;29;20479;-74
2022/01/28 16:46:25;;;;;;;16.20;10.33;;;4.80;99.90;;;;;;4911432;29;20490;-74
2022/01/28 16:48:54;;;;;;;22.40;13.73;;;4.80;99.90;;;;;;4915930;29;20537;-76
2022/01/28 16:51:21;;;;;;;18.43;12.77;;;4.70;99.90;;;;;;4915831;29;20564;-76
2022/01/28 16:53:48;;;;;;;36.20;25.70;;;4.70;99.90;;;;;;4920872;29;20538;-78
2022/01/28 16:56:16;;;;;;;25.40;15.70;;;4.70;99.90;;;;;;4924794;29;20874;-77
2022/01/28 16:58:43;;;;;;;24.57;15.60;;;4.70;99.90;;;;;;4916960;29;20459;-75
2022/01/28 17:01:11;;;;;;;23.93;12.50;;;4.70;99.90;;;;;;4913201;29;20498;-75
2022/01/28 17:03:40;;;;;;;23.43;13.90;;;4.70;99.90;;;;;;4916307;29;20486;-74
2022/01/28 17:06:09;;;;;;;19.53;11.73;;;4.70;99.90;;;;;;4915481;29;20465;-66
2022/01/28 17:08:36;;;;;;;19.13;11.00;;;4.70;99.90;;;;;;4915634;29;20454;-67
2022/01/28 17:11:24;;;;;;;21.00;9.90;;;4.70;99.90;;;;;;4915451;29;20482;-75
2022/01/28 17:13:52;;;;;;;18.13;11.77;;;4.70;99.90;;;;;;4916191;29;20458;-73
2022/01/28 17:16:23;;;;;;;23.33;10.63;;;4.70;99.90;;;;;;4911742;29;20490;-74
2022/01/28 17:18:52;;;;;;;27.77;12.07;;;4.60;99.90;;;;;;4914995;29;20454;-73
2022/01/28 17:21:19;;;;;;;24.47;11.60;;;4.60;99.90;;;;;;4915569;29;21079;-72
2022/01/28 17:23:46;;;;;;;18.37;11.20;;;4.60;99.90;;;;;;4915308;29;20457;-72
2022/01/28 17:26:14;;;;;;;21.47;11.77;;;4.60;99.90;;;;;;4915211;29;20805;-72
2022/01/28 17:28:41;;;;;;;19.10;10.57;;;4.60;99.90;;;;;;4915718;29;20481;-72
2022/01/28 17:31:08;;;;;;;22.53;11.00;;;4.60;99.90;;;;;;4914901;29;20471;-72
2022/01/28 17:33:35;;;;;;;20.73;10.20;;;4.50;99.90;;;;;;4915012;29;20491;-73
2022/01/28 17:36:04;;;;;;;17.33;10.03;;;4.50;99.90;;;;;;4915544;29;20550;-73
2022/01/28 17:38:33;;;;;;;19.10;10.80;;;4.50;99.90;;;;;;4915176;29;20549;-73
2022/01/28 17:41:01;;;;;;;19.00;10.70;;;4.50;99.90;;;;;;4915435;29;20565;-73
2022/01/28 17:43:28;;;;;;;21.80;11.63;;;4.50;99.90;;;;;;4915515;29;20510;-73
2022/01/28 17:45:55;;;;;;;20.53;11.53;;;4.50;99.90;;;;;;4916931;29;20458;-73
2022/01/28 17:48:22;;;;;;;19.83;11.77;;;4.50;99.90;;;;;;4919387;29;20493;-73
2022/01/28 17:50:49;;;;;;;20.40;11.90;;;4.50;99.90;;;;;;4918862;29;20557;-73
2022/01/28 17:53:17;;;;;;;18.50;11.20;;;4.60;99.90;;;;;;4919668;29;20489;-73
2022/01/28 17:55:44;;;;;;;20.50;13.40;;;4.60;99.90;;;;;;4919390;29;20545;-73
2022/01/28 17:58:11;;;;;;;25.00;12.93;;;4.60;99.90;;;;;;4919349;29;20465;-73
2022/01/28 18:00:39;;;;;;;24.17;11.57;;;4.60;99.90;;;;;;4918641;29;20474;-73
2022/01/28 18:03:07;;;;;;;21.00;12.00;;;4.60;99.90;;;;;;4919155;29;20525;-73
2022/01/28 18:05:34;;;;;;;23.27;12.03;;;4.60;99.90;;;;;;4917681;29;20537;-73
2022/01/28 18:08:02;;;;;;;32.23;19.20;;;4.60;99.90;;;;;;4925468;29;21029;-73
2022/01/28 18:10:30;;;;;;;24.10;13.93;;;4.50;99.90;;;;;;4925248;29;20461;-73
2022/01/28 18:13:02;;;;;;;21.53;13.40;;;4.50;99.90;;;;;;4924455;29;20536;-74
2022/01/28 18:15:30;;;;;;;20.93;12.57;;;4.50;99.90;;;;;;4926719;29;20457;-74